Time;durP1;ratioP1;P1;durP2;ratioP2;P2;SDS_P1;SDS_P2;PMS_P1;PMS_P2;Temp;Humidity;BMP_temperature;BMP_pressure;BME280_temperature;BME280_humidity;BME280_pressure;Samples;Min_cycle;Max_cycle;Signal;HPM_P1;HPM_P2
2021/03/09 00:01:23;;;;;;;82.17;50.33;;;5.10;99.90;;;;;;5072442;28;20156;-64
2021/03/09 00:03:49;;;;;;;84.30;50.07;;;5.10;99.90;;;;;;5083362;28;20175;-64
2021/03/09 00:06:14;;;;;;;82.70;48.80;;;5.10;99.90;;;;;;5092764;28;20195;-64
2021/03/09 00:08:40;;;;;;;79.10;47.97;;;5.10;99.90;;;;;;5092728;28;20170;-64
2021/03/09 00:11:05;;;;;;;86.27;49.63;;;5.10;99.90;;;;;;5092519;28;20147;-64
2021/03/09 00:13:30;;;;;;;84.73;48.30;;;5.10;99.90;;;;;;5092616;28;20630;-64
2021/03/09 00:15:56;;;;;;;81.00;49.53;;;5.10;99.90;;;;;;5092456;28;20238;-64
2021/03/09 00:18:21;;;;;;;92.90;52.70;;;5.10;99.90;;;;;;5092763;28;20594;-64
2021/03/09 00:20:47;;;;;;;91.83;51.80;;;5.10;99.90;;;;;;5091650;28;20669;-64
2021/03/09 00:23:12;;;;;;;80.90;48.13;;;5.10;99.90;;;;;;5091248;28;20312;-64
2021/03/09 00:25:38;;;;;;;79.53;49.00;;;5.10;99.90;;;;;;5092326;28;20232;-64
2021/03/09 00:28:04;;;;;;;88.33;51.20;;;5.20;99.90;;;;;;5092410;28;20246;-64
2021/03/09 00:30:29;;;;;;;89.47;53.47;;;5.20;99.90;;;;;;5092480;28;20699;-64
2021/03/09 00:32:55;;;;;;;85.17;50.90;;;5.20;99.90;;;;;;5092650;28;20388;-64
2021/03/09 00:35:20;;;;;;;79.97;52.10;;;5.20;99.90;;;;;;5096384;28;20522;-64
2021/03/09 00:37:46;;;;;;;84.03;51.83;;;5.20;99.90;;;;;;5095216;28;20171;-64
2021/03/09 00:40:11;;;;;;;86.60;53.37;;;5.20;99.90;;;;;;5095963;28;20155;-64
2021/03/09 00:42:37;;;;;;;86.83;52.03;;;5.30;99.90;;;;;;5095964;28;20151;-64
2021/03/09 00:45:03;;;;;;;92.00;49.47;;;5.30;99.90;;;;;;5095943;28;20163;-64
2021/03/09 00:47:29;;;;;;;90.80;54.70;;;5.30;99.90;;;;;;5094973;28;20194;-64
2021/03/09 00:49:55;;;;;;;83.97;51.80;;;5.30;99.90;;;;;;5095757;28;20900;-64
2021/03/09 00:52:20;;;;;;;91.53;54.67;;;5.30;99.90;;;;;;5095773;28;20204;-64
2021/03/09 00:54:46;;;;;;;87.40;54.77;;;5.30;99.90;;;;;;5094761;28;20515;-64
2021/03/09 00:57:11;;;;;;;91.07;55.57;;;5.30;99.90;;;;;;5095798;28;20201;-64
2021/03/09 00:59:37;;;;;;;96.87;56.27;;;5.30;99.90;;;;;;5095603;28;20163;-64
2021/03/09 01:02:02;;;;;;;92.27;56.10;;;5.40;99.90;;;;;;5091848;28;20171;-64
2021/03/09 01:04:28;;;;;;;86.97;54.47;;;5.40;99.90;;;;;;5075463;28;20159;-64
2021/03/09 01:06:53;;;;;;;94.70;55.47;;;5.40;99.90;;;;;;5075139;28;20184;-64
2021/03/09 01:09:19;;;;;;;91.10;54.60;;;5.40;99.90;;;;;;5075133;28;20159;-64
2021/03/09 01:11:45;;;;;;;94.27;54.97;;;5.40;99.90;;;;;;5075661;28;20182;-64
2021/03/09 01:14:10;;;;;;;94.07;57.00;;;5.50;99.90;;;;;;5075325;28;20168;-65
2021/03/09 01:16:36;;;;;;;93.93;55.50;;;5.50;99.90;;;;;;5075001;28;20166;-64
2021/03/09 01:19:01;;;;;;;90.73;54.10;;;5.50;99.90;;;;;;5074961;28;20562;-64
2021/03/09 01:21:27;;;;;;;96.37;56.07;;;5.50;99.90;;;;;;5074900;28;20156;-64
2021/03/09 01:23:52;;;;;;;91.77;57.13;;;5.50;99.90;;;;;;5074834;28;20166;-64
2021/03/09 01:26:18;;;;;;;90.00;53.47;;;5.50;99.90;;;;;;5074597;28;20203;-65
2021/03/09 01:28:43;;;;;;;88.27;52.80;;;5.50;99.90;;;;;;5075593;28;20191;-64
2021/03/09 01:31:09;;;;;;;99.87;56.90;;;5.40;99.90;;;;;;5073488;28;20182;-64
2021/03/09 01:33:35;;;;;;;95.90;56.33;;;5.40;99.90;;;;;;5074721;28;20163;-64
2021/03/09 01:36:01;;;;;;;93.87;55.17;;;5.40;99.90;;;;;;5074529;28;20880;-64
2021/03/09 01:38:26;;;;;;;98.77;55.10;;;5.40;99.90;;;;;;5074576;28;20457;-64
2021/03/09 01:40:52;;;;;;;90.40;52.53;;;5.40;99.90;;;;;;5074666;28;20163;-64
2021/03/09 01:43:18;;;;;;;83.47;54.03;;;5.40;99.90;;;;;;5073328;28;20535;-64
2021/03/09 01:45:43;;;;;;;87.50;51.20;;;5.40;99.90;;;;;;5075218;28;20661;-64
2021/03/09 01:48:09;;;;;;;84.27;52.00;;;5.40;99.90;;;;;;5074303;28;20471;-65
2021/03/09 01:50:38;;;;;;;75.93;48.47;;;5.30;99.90;;;;;;5074269;28;20234;-64
2021/03/09 01:53:06;;;;;;;80.70;50.37;;;5.30;99.90;;;;;;5074535;28;20593;-64
2021/03/09 01:55:32;;;;;;;79.93;50.90;;;5.30;99.90;;;;;;5073466;28;20424;-64
2021/03/09 01:58:00;;;;;;;78.90;50.63;;;5.30;99.90;;;;;;5074664;28;20922;-64
2021/03/09 02:00:25;;;;;;;75.50;48.57;;;5.30;99.90;;;;;;5074336;28;20404;-64
2021/03/09 02:02:51;;;;;;;80.07;50.27;;;5.30;99.90;;;;;;5085403;28;20404;-64
2021/03/09 02:05:16;;;;;;;74.80;48.57;;;5.20;99.90;;;;;;5094272;28;20146;-64
2021/03/09 02:07:42;;;;;;;84.47;51.00;;;5.20;99.90;;;;;;5094530;28;20244;-64
2021/03/09 02:10:11;;;;;;;85.13;51.90;;;5.20;99.90;;;;;;5094128;28;20151;-64
2021/03/09 02:15:31;;;;;;;97.47;58.20;;;5.20;99.90;;;;;;5110752;27;20498;-65
2021/03/09 02:26:31;;;;;;;96.23;54.27;;;5.20;99.90;;;;;;5091634;27;20507;-64
2021/03/09 02:29:26;;;;;;;85.57;53.50;;;5.20;99.90;;;;;;5089404;28;20526;-64
2021/03/09 02:31:54;;;;;;;81.97;52.23;;;5.20;99.90;;;;;;5089385;28;20389;-65
2021/03/09 02:34:28;;;;;;;78.47;50.37;;;5.20;99.90;;;;;;5090584;28;20889;-65
2021/03/09 02:36:54;;;;;;;78.50;50.57;;;5.10;99.90;;;;;;5090251;28;20494;-64
2021/03/09 02:39:21;;;;;;;81.67;50.50;;;5.10;99.90;;;;;;5090366;28;20912;-64
2021/03/09 02:41:48;;;;;;;83.07;52.83;;;5.10;99.90;;;;;;5089008;28;20393;-64
2021/03/09 02:44:19;;;;;;;84.40;49.27;;;5.10;99.90;;;;;;5090272;28;20902;-64
2021/03/09 02:46:46;;;;;;;77.47;50.17;;;5.10;99.90;;;;;;5088944;28;20431;-64
2021/03/09 02:49:13;;;;;;;77.27;50.77;;;5.00;99.90;;;;;;5090617;28;20449;-64
2021/03/09 02:51:40;;;;;;;85.30;52.10;;;5.00;99.90;;;;;;5089851;28;20893;-64
2021/03/09 02:54:08;;;;;;;80.80;50.73;;;5.00;99.90;;;;;;5070009;28;20750;-64
2021/03/09 02:56:38;;;;;;;79.50;52.20;;;4.90;99.90;;;;;;5069757;28;20819;-64
2021/03/09 02:59:07;;;;;;;84.50;53.87;;;5.00;99.90;;;;;;5069791;28;20405;-64
2021/03/09 03:01:33;;;;;;;79.17;49.63;;;5.00;99.90;;;;;;5076624;28;20914;-64
2021/03/09 03:03:59;;;;;;;71.13;49.87;;;5.00;99.90;;;;;;5089613;28;20444;-64
2021/03/09 03:06:26;;;;;;;83.73;52.87;;;5.00;99.90;;;;;;5089722;28;20425;-64
2021/03/09 03:08:53;;;;;;;78.53;51.53;;;5.00;99.90;;;;;;5089647;28;20889;-64
2021/03/09 03:11:20;;;;;;;73.50;48.00;;;5.00;99.90;;;;;;5089955;28;20390;-65
2021/03/09 03:13:46;;;;;;;77.10;50.43;;;5.00;99.90;;;;;;5089410;28;20804;-65
2021/03/09 03:16:13;;;;;;;77.77;48.87;;;5.00;99.90;;;;;;5089698;28;20389;-65
2021/03/09 03:18:42;;;;;;;87.63;52.83;;;4.90;99.90;;;;;;5089341;28;20761;-65
2021/03/09 03:21:11;;;;;;;69.80;47.13;;;4.90;99.90;;;;;;5088221;28;20412;-65
2021/03/09 03:23:38;;;;;;;74.90;49.37;;;4.90;99.90;;;;;;5089261;28;20484;-65
2021/03/09 03:26:06;;;;;;;81.60;48.93;;;4.90;99.90;;;;;;5089341;28;20471;-66
2021/03/09 03:28:34;;;;;;;72.60;50.90;;;4.90;99.90;;;;;;5089222;28;20493;-65
2021/03/09 03:31:01;;;;;;;63.83;45.50;;;4.90;99.90;;;;;;5089339;28;20402;-66
2021/03/09 03:33:28;;;;;;;80.43;49.93;;;4.90;99.90;;;;;;5089071;28;20454;-65
2021/03/09 03:35:53;;;;;;;77.67;47.93;;;4.90;99.90;;;;;;5084386;28;20428;-66
2021/03/09 03:38:19;;;;;;;73.93;49.83;;;4.90;99.90;;;;;;5075689;28;20394;-65
2021/03/09 03:40:45;;;;;;;69.20;46.27;;;4.90;99.90;;;;;;5075500;28;20156;-65
2021/03/09 03:43:10;;;;;;;76.73;48.60;;;4.90;99.90;;;;;;5075378;28;20310;-66
2021/03/09 03:45:36;;;;;;;67.67;46.50;;;4.90;99.90;;;;;;5075482;28;20226;-65
2021/03/09 03:48:02;;;;;;;66.63;46.80;;;4.80;99.90;;;;;;5074377;28;20174;-65
2021/03/09 03:50:30;;;;;;;72.73;47.60;;;4.80;99.90;;;;;;5075342;28;20152;-66
2021/03/09 03:53:35;;;;;;;67.63;45.70;;;4.80;99.90;;;;;;5075427;28;20406;-66
2021/03/09 03:58:47;;;;;;;63.20;45.50;;;4.80;99.90;;;;;;5110840;27;20512;-65
2021/03/09 04:01:14;;;;;;;71.03;48.37;;;4.80;99.90;;;;;;5102922;28;20403;-65
2021/03/09 04:03:41;;;;;;;72.10;46.37;;;4.80;99.90;;;;;;5110951;28;20479;-65
2021/03/09 04:06:07;;;;;;;66.67;45.67;;;4.80;99.90;;;;;;5110413;28;20453;-66
2021/03/09 04:08:36;;;;;;;62.20;44.30;;;4.80;99.90;;;;;;5111091;28;20888;-65
2021/03/09 04:11:03;;;;;;;65.90;46.03;;;4.80;99.90;;;;;;5109426;28;20380;-66
2021/03/09 04:13:31;;;;;;;69.70;45.70;;;4.80;99.90;;;;;;5109404;28;20483;-65
2021/03/09 04:15:57;;;;;;;71.40;48.40;;;4.80;99.90;;;;;;5110677;28;20781;-65
2021/03/09 04:18:25;;;;;;;69.13;46.50;;;4.80;99.90;;;;;;5109440;28;20448;-65
2021/03/09 04:20:52;;;;;;;69.00;47.70;;;4.70;99.90;;;;;;5110711;28;20395;-65
2021/03/09 04:23:18;;;;;;;72.13;48.90;;;4.80;99.90;;;;;;5110447;28;20396;-65
2021/03/09 04:25:44;;;;;;;69.77;46.80;;;4.80;99.90;;;;;;5110424;28;20597;-65
2021/03/09 04:28:11;;;;;;;75.80;48.70;;;4.80;99.90;;;;;;5110194;28;20392;-65
2021/03/09 04:30:37;;;;;;;78.17;48.10;;;4.80;99.90;;;;;;5110116;28;20425;-65
2021/03/09 04:33:03;;;;;;;78.77;48.67;;;4.80;99.90;;;;;;5110267;28;20481;-65
2021/03/09 04:35:29;;;;;;;73.10;48.63;;;4.80;99.90;;;;;;5109248;28;20415;-65
2021/03/09 04:37:56;;;;;;;70.47;47.70;;;4.90;99.90;;;;;;5110300;28;20795;-65
2021/03/09 04:40:22;;;;;;;78.57;49.57;;;4.80;99.90;;;;;;5110054;28;20400;-65
2021/03/09 04:42:48;;;;;;;69.03;47.23;;;4.80;99.90;;;;;;5110148;28;20396;-65
2021/03/09 04:45:14;;;;;;;71.57;50.90;;;4.70;99.90;;;;;;5109769;28;20874;-65
2021/03/09 04:47:40;;;;;;;68.13;50.50;;;4.80;99.90;;;;;;5108686;28;20155;-66
2021/03/09 04:50:09;;;;;;;70.43;47.67;;;4.70;99.90;;;;;;5109953;28;20181;-65
2021/03/09 04:52:35;;;;;;;68.33;48.33;;;4.70;99.90;;;;;;5108157;28;20411;-65
2021/03/09 04:55:03;;;;;;;80.70;53.27;;;4.70;99.90;;;;;;5109918;28;20400;-65
2021/03/09 04:57:44;;;;;;;74.70;50.60;;;4.70;99.90;;;;;;5109529;28;21055;-65
2021/03/09 05:00:13;;;;;;;78.87;49.50;;;4.70;99.90;;;;;;5104649;28;20409;-66
2021/03/09 05:02:38;;;;;;;74.80;49.40;;;4.70;99.90;;;;;;5089326;28;20467;-66
2021/03/09 05:05:05;;;;;;;83.70;53.57;;;4.70;99.90;;;;;;5088162;28;20397;-65
2021/03/09 05:07:30;;;;;;;85.97;53.80;;;4.70;99.90;;;;;;5089243;28;20283;-66
2021/03/09 05:09:56;;;;;;;89.00;57.00;;;4.70;99.90;;;;;;5076538;28;20910;-66
2021/03/09 05:12:21;;;;;;;76.63;54.50;;;4.70;99.90;;;;;;5075579;28;20182;-66
2021/03/09 05:14:47;;;;;;;83.17;57.50;;;4.70;99.90;;;;;;5075636;28;20159;-66
2021/03/09 05:17:13;;;;;;;79.53;53.17;;;4.70;99.90;;;;;;5074029;28;20198;-65
2021/03/09 05:19:39;;;;;;;85.80;54.67;;;4.70;99.90;;;;;;5075924;28;20156;-65
2021/03/09 05:22:05;;;;;;;84.13;55.70;;;4.70;99.90;;;;;;5075553;28;20235;-65
2021/03/09 05:24:30;;;;;;;83.17;57.67;;;4.70;99.90;;;;;;5074142;28;20386;-65
2021/03/09 05:26:56;;;;;;;89.17;57.40;;;4.70;99.90;;;;;;5075747;28;20409;-65
2021/03/09 05:29:21;;;;;;;88.77;59.60;;;4.60;99.90;;;;;;5075644;28;20554;-65
2021/03/09 05:31:47;;;;;;;78.23;54.40;;;4.60;99.90;;;;;;5075193;28;20164;-65
2021/03/09 05:34:12;;;;;;;82.70;53.70;;;4.60;99.90;;;;;;5075407;28;20459;-65
2021/03/09 05:36:38;;;;;;;81.63;54.80;;;4.50;99.90;;;;;;5075092;28;20648;-65
2021/03/09 05:39:04;;;;;;;75.80;54.17;;;4.50;99.90;;;;;;5075152;28;20405;-65
2021/03/09 05:41:29;;;;;;;86.50;54.77;;;4.50;99.90;;;;;;5075053;28;20156;-66
2021/03/09 05:43:55;;;;;;;78.50;54.03;;;4.50;99.90;;;;;;5075763;28;20417;-66
2021/03/09 05:46:21;;;;;;;75.13;52.80;;;4.50;99.90;;;;;;5075267;28;20721;-65
2021/03/09 05:48:47;;;;;;;77.53;52.67;;;4.40;99.90;;;;;;5075302;28;20394;-65
2021/03/09 05:51:13;;;;;;;74.10;50.67;;;4.40;99.90;;;;;;5074859;28;20394;-65
2021/03/09 05:53:38;;;;;;;73.17;51.43;;;4.40;99.90;;;;;;5075029;28;20565;-65
2021/03/09 05:56:05;;;;;;;78.20;52.47;;;4.40;99.90;;;;;;5074742;28;20879;-65
2021/03/09 05:58:31;;;;;;;78.93;49.70;;;4.30;99.90;;;;;;5074697;28;20309;-65
2021/03/09 06:00:57;;;;;;;77.97;52.03;;;4.40;99.90;;;;;;5087099;28;20405;-66
2021/03/09 06:03:26;;;;;;;80.47;53.90;;;4.40;99.90;;;;;;5094939;28;20928;-66
2021/03/09 06:05:52;;;;;;;72.27;49.90;;;4.30;99.90;;;;;;5094907;28;20612;-65
2021/03/09 06:08:17;;;;;;;71.30;48.40;;;4.30;99.90;;;;;;5093925;28;20394;-65
2021/03/09 06:10:44;;;;;;;78.43;48.97;;;4.30;99.90;;;;;;5093671;28;20161;-66
2021/03/09 06:13:26;;;;;;;75.53;47.97;;;4.30;99.90;;;;;;5095266;28;20170;-66
2021/03/09 06:15:53;;;;;;;80.60;50.10;;;4.30;99.90;;;;;;5094386;28;20746;-66
2021/03/09 06:18:24;;;;;;;73.17;48.83;;;4.30;99.90;;;;;;5094642;28;20448;-66
2021/03/09 06:20:49;;;;;;;70.60;47.83;;;4.30;99.90;;;;;;5093676;28;20390;-66
2021/03/09 06:23:26;;;;;;;69.73;50.33;;;4.30;99.90;;;;;;5094597;28;20740;-66
2021/03/09 06:25:52;;;;;;;71.80;48.57;;;4.30;99.90;;;;;;5094708;28;20619;-66
2021/03/09 06:28:30;;;;;;;70.33;47.03;;;4.30;99.90;;;;;;5094560;28;20420;-66
2021/03/09 06:30:59;;;;;;;67.00;46.50;;;4.30;99.90;;;;;;5094788;28;20158;-66
2021/03/09 06:33:27;;;;;;;67.07;47.90;;;4.30;99.90;;;;;;5093761;28;20447;-66
2021/03/09 06:35:53;;;;;;;67.00;47.23;;;4.40;99.90;;;;;;5076620;28;20388;-66
2021/03/09 06:43:42;;;;;;;62.37;45.00;;;4.30;99.90;;;;;;5111170;27;20520;-66
2021/03/09 06:46:19;;;;;;;66.10;45.23;;;4.40;99.90;;;;;;5110890;28;20491;-66
2021/03/09 06:48:47;;;;;;;65.37;45.50;;;4.50;99.90;;;;;;5110178;28;20434;-67
2021/03/09 06:51:26;;;;;;;58.60;43.50;;;4.50;99.90;;;;;;5097697;28;20404;-67
2021/03/09 06:56:38;;;;;;;59.83;42.60;;;4.50;99.90;;;;;;5111017;27;20502;-65
2021/03/09 06:59:25;;;;;;;68.33;43.90;;;4.50;99.90;;;;;;5110889;28;20404;-66
2021/03/09 07:02:09;;;;;;;62.23;42.90;;;4.50;99.90;;;;;;5109965;28;21223;-66
2021/03/09 07:04:38;;;;;;;67.20;46.90;;;4.50;99.90;;;;;;5110673;28;20390;-66
2021/03/09 07:07:04;;;;;;;61.10;43.53;;;4.50;99.90;;;;;;5109074;28;20973;-66
2021/03/09 07:09:29;;;;;;;62.37;46.13;;;4.50;99.90;;;;;;5109604;28;20408;-66
2021/03/09 07:11:55;;;;;;;61.30;43.23;;;4.50;99.90;;;;;;5110610;28;20403;-66
2021/03/09 07:14:22;;;;;;;57.73;42.77;;;4.60;99.90;;;;;;5110853;28;20162;-66
2021/03/09 07:16:50;;;;;;;63.30;42.57;;;4.60;99.90;;;;;;5110511;28;20166;-66
2021/03/09 07:19:24;;;;;;;56.80;43.03;;;4.50;99.90;;;;;;5110506;28;20404;-66
2021/03/09 07:21:51;;;;;;;66.13;46.00;;;4.50;99.90;;;;;;5109128;28;20392;-66
2021/03/09 07:24:20;;;;;;;63.73;43.87;;;4.50;99.90;;;;;;5108557;28;20491;-66
2021/03/09 07:26:47;;;;;;;58.67;45.03;;;4.50;99.90;;;;;;5110389;28;20790;-66
2021/03/09 07:29:16;;;;;;;66.23;46.83;;;4.50;99.90;;;;;;5110370;28;20427;-66
2021/03/09 07:31:47;;;;;;;61.50;43.63;;;4.50;99.90;;;;;;5110249;28;20519;-66
2021/03/09 07:34:14;;;;;;;60.17;44.60;;;4.50;99.90;;;;;;5110110;28;20401;-66
2021/03/09 07:36:40;;;;;;;65.60;46.50;;;4.40;99.90;;;;;;5110322;28;20392;-66
2021/03/09 07:39:06;;;;;;;68.83;48.80;;;4.40;99.90;;;;;;5110250;28;20395;-66
2021/03/09 07:41:34;;;;;;;57.53;42.20;;;4.50;99.90;;;;;;5109501;28;20249;-66
2021/03/09 07:44:00;;;;;;;59.63;42.43;;;4.50;99.90;;;;;;5110165;28;20396;-66
2021/03/09 07:46:26;;;;;;;61.83;42.83;;;4.50;99.90;;;;;;5109746;28;21028;-66
2021/03/09 07:48:53;;;;;;;52.80;40.83;;;4.50;99.90;;;;;;5110233;28;20157;-66
2021/03/09 07:51:21;;;;;;;57.57;42.83;;;4.50;99.90;;;;;;5110017;28;20397;-66
2021/03/09 07:54:08;;;;;;;59.97;42.97;;;4.60;99.90;;;;;;5109914;28;20392;-66
2021/03/09 07:56:34;;;;;;;58.23;40.90;;;4.60;99.90;;;;;;5094969;28;20392;-66
2021/03/09 07:59:07;;;;;;;56.10;40.10;;;4.60;99.90;;;;;;5105218;28;20412;-66
2021/03/09 08:01:48;;;;;;;55.53;40.93;;;4.70;99.90;;;;;;5089742;28;20217;-66
2021/03/09 08:04:14;;;;;;;51.27;37.77;;;4.70;99.90;;;;;;5089511;28;20871;-66
2021/03/09 08:06:43;;;;;;;51.10;37.17;;;4.70;99.90;;;;;;5082966;28;20398;-66
2021/03/09 08:09:34;;;;;;;51.10;37.80;;;4.70;99.90;;;;;;5076064;28;20454;-66
2021/03/09 08:12:00;;;;;;;46.87;36.03;;;4.60;99.90;;;;;;5074770;28;20393;-66
2021/03/09 08:14:26;;;;;;;48.70;35.93;;;4.60;99.90;;;;;;5075630;28;20402;-66
2021/03/09 08:16:52;;;;;;;45.03;35.27;;;4.60;99.90;;;;;;5076307;28;20179;-66
2021/03/09 08:22:03;;;;;;;46.97;37.03;;;4.60;99.90;;;;;;5131590;27;20508;-67
2021/03/09 08:32:40;;;;;;;46.40;36.83;;;4.60;99.90;;;;;;5122726;27;20516;-66
2021/03/09 08:37:50;;;;;;;47.33;36.60;;;4.70;99.90;;;;;;5090719;27;20509;-66
2021/03/09 08:40:18;;;;;;;48.63;37.20;;;4.80;99.90;;;;;;5090462;28;20466;-66
2021/03/09 08:48:15;;;;;;;43.47;34.80;;;4.90;99.90;;;;;;5131493;27;21049;-67
2021/03/09 08:50:42;;;;;;;44.83;32.97;;;4.90;99.90;;;;;;5113863;28;20397;-67
2021/03/09 08:53:30;;;;;;;40.10;32.97;;;4.90;99.90;;;;;;5111070;28;20250;-66
2021/03/09 08:55:57;;;;;;;44.30;32.80;;;4.90;99.90;;;;;;5096456;28;20862;-66
2021/03/09 08:58:24;;;;;;;39.10;32.17;;;4.80;99.90;;;;;;5110664;28;20400;-66
2021/03/09 09:00:49;;;;;;;39.17;31.13;;;4.80;99.90;;;;;;5129883;28;20489;-66
2021/03/09 09:03:36;;;;;;;42.80;33.03;;;4.80;99.90;;;;;;5113131;28;20474;-66
2021/03/09 09:06:02;;;;;;;42.93;32.70;;;4.90;99.90;;;;;;5115281;28;20174;-67
2021/03/09 09:08:29;;;;;;;38.57;32.10;;;4.90;99.90;;;;;;5131207;28;20396;-67
2021/03/09 09:10:55;;;;;;;40.80;31.90;;;5.00;99.90;;;;;;5131135;28;20390;-67
2021/03/09 09:13:37;;;;;;;39.27;32.00;;;5.00;99.90;;;;;;5130964;28;20387;-67
2021/03/09 09:16:16;;;;;;;36.10;30.37;;;5.10;99.90;;;;;;5112774;28;20188;-67
2021/03/09 09:18:42;;;;;;;36.30;28.37;;;5.10;99.90;;;;;;5130891;28;20392;-67
2021/03/09 09:21:07;;;;;;;35.90;29.20;;;5.10;99.90;;;;;;5131140;28;20393;-67
2021/03/09 09:23:35;;;;;;;36.57;29.10;;;5.10;99.90;;;;;;5129932;28;20176;-67
2021/03/09 09:26:01;;;;;;;36.90;29.93;;;5.10;99.90;;;;;;5130661;28;20168;-66
2021/03/09 09:31:08;;;;;;;37.03;29.63;;;5.10;99.90;;;;;;5111058;27;20510;-66
2021/03/09 09:33:34;;;;;;;35.73;30.03;;;5.20;99.90;;;;;;5109979;28;20468;-66
2021/03/09 09:35:59;;;;;;;31.50;27.83;;;5.10;99.90;;;;;;5111008;28;20425;-66
2021/03/09 09:38:25;;;;;;;35.20;28.90;;;5.10;99.90;;;;;;5110852;28;20187;-66
2021/03/09 09:40:55;;;;;;;38.70;30.93;;;5.20;99.90;;;;;;5100153;28;20674;-66
2021/03/09 09:43:24;;;;;;;36.90;30.97;;;5.20;99.90;;;;;;5090568;28;20159;-67
2021/03/09 09:48:31;;;;;;;34.70;28.67;;;5.30;99.90;;;;;;5111051;27;20501;-66
2021/03/09 09:50:58;;;;;;;33.20;28.50;;;5.40;99.90;;;;;;5110836;28;20434;-66
2021/03/09 09:53:41;;;;;;;32.67;27.30;;;5.40;99.90;;;;;;5110835;28;21025;-67
2021/03/09 09:56:09;;;;;;;30.80;26.17;;;5.50;99.90;;;;;;5110818;28;20464;-67
2021/03/09 10:04:09;;;;;;;34.40;28.77;;;5.50;99.90;;;;;;5131534;27;20542;-66
2021/03/09 10:11:58;;;;;;;31.73;23.97;;;5.40;99.90;;;;;;5111127;27;20510;-66
2021/03/09 10:14:26;;;;;;;27.07;23.73;;;5.30;99.90;;;;;;5104749;28;20906;-66
2021/03/09 10:16:52;;;;;;;28.20;22.83;;;5.20;99.90;;;;;;5090706;28;20428;-66
2021/03/09 10:19:21;;;;;;;29.20;24.47;;;5.30;99.90;;;;;;5090781;28;20473;-66
2021/03/09 10:21:48;;;;;;;25.80;22.70;;;5.30;99.90;;;;;;5090427;28;20374;-66
2021/03/09 10:27:00;;;;;;;26.23;22.83;;;5.40;99.90;;;;;;5131462;27;20509;-67
2021/03/09 10:29:28;;;;;;;27.93;24.13;;;5.50;99.90;;;;;;5130298;28;20449;-67
2021/03/09 10:32:00;;;;;;;30.90;25.00;;;5.50;99.90;;;;;;5120680;27;20432;-67
2021/03/09 10:37:31;;;;;;;26.60;22.97;;;5.40;99.90;;;;;;5090817;27;20511;-66
2021/03/09 10:40:00;;;;;;;24.33;20.80;;;5.40;99.90;;;;;;5090809;28;20385;-66
2021/03/09 10:42:36;;;;;;;22.33;19.53;;;5.30;99.90;;;;;;5090820;28;20811;-66
2021/03/09 10:45:22;;;;;;;21.83;19.47;;;5.20;99.90;;;;;;5090738;28;20454;-65
2021/03/09 10:47:59;;;;;;;24.33;21.37;;;5.20;99.90;;;;;;5068896;28;20382;-66
2021/03/09 10:50:28;;;;;;;25.10;20.60;;;5.20;99.90;;;;;;5050053;28;20403;-66
2021/03/09 10:52:54;;;;;;;24.00;20.20;;;5.20;99.90;;;;;;5050226;28;20394;-66
2021/03/09 10:55:20;;;;;;;22.03;19.67;;;5.20;99.90;;;;;;5050364;28;20526;-66
2021/03/09 10:57:46;;;;;;;24.30;20.47;;;5.30;99.90;;;;;;5050153;28;20387;-66
2021/03/09 11:00:14;;;;;;;22.27;19.97;;;5.30;99.90;;;;;;5063417;28;20437;-66
2021/03/09 11:02:40;;;;;;;25.77;22.67;;;5.40;99.90;;;;;;5069785;28;20201;-66
2021/03/09 11:05:07;;;;;;;26.17;21.87;;;5.40;99.90;;;;;;5069027;28;20411;-66
2021/03/09 11:07:33;;;;;;;23.47;20.47;;;5.40;99.90;;;;;;5069749;28;20965;-66
2021/03/09 11:09:58;;;;;;;24.87;21.40;;;5.40;99.90;;;;;;5069895;28;20430;-66
2021/03/09 11:12:24;;;;;;;24.50;20.10;;;5.40;99.90;;;;;;5069727;28;20221;-66
2021/03/09 11:14:49;;;;;;;23.97;20.40;;;5.40;99.90;;;;;;5069652;28;20242;-66
2021/03/09 11:17:15;;;;;;;24.57;20.80;;;5.50;99.90;;;;;;5069585;28;20164;-66
2021/03/09 11:19:41;;;;;;;27.57;23.30;;;5.50;99.90;;;;;;5069471;28;20160;-66
2021/03/09 11:22:06;;;;;;;24.97;22.23;;;5.40;99.90;;;;;;5068995;28;20172;-66
2021/03/09 11:24:32;;;;;;;25.77;23.07;;;5.50;99.90;;;;;;5069426;28;20236;-66
2021/03/09 11:27:00;;;;;;;28.10;20.50;;;5.50;99.90;;;;;;5069505;28;20251;-66
2021/03/09 11:29:27;;;;;;;26.67;22.07;;;5.50;99.90;;;;;;5069340;28;20555;-66
2021/03/09 11:31:53;;;;;;;24.30;20.90;;;5.50;99.90;;;;;;5069311;28;20387;-66
2021/03/09 11:34:19;;;;;;;28.10;22.60;;;5.50;99.90;;;;;;5069072;28;20401;-66
2021/03/09 11:36:44;;;;;;;24.10;21.27;;;5.50;99.90;;;;;;5069131;28;20319;-66
2021/03/09 11:39:10;;;;;;;26.30;23.07;;;5.50;99.90;;;;;;5068229;28;20230;-66
2021/03/09 11:41:35;;;;;;;28.23;24.57;;;5.50;99.90;;;;;;5069242;28;20216;-66
2021/03/09 11:44:01;;;;;;;29.30;23.93;;;5.50;99.90;;;;;;5068952;28;20266;-66
2021/03/09 11:46:27;;;;;;;29.07;25.83;;;5.50;99.90;;;;;;5068304;28;20195;-66
2021/03/09 11:48:52;;;;;;;30.37;26.17;;;5.50;99.90;;;;;;5055356;28;20161;-66
2021/03/09 11:51:18;;;;;;;29.30;25.43;;;5.50;99.90;;;;;;5055722;28;20489;-66
2021/03/09 11:53:43;;;;;;;30.27;26.67;;;5.50;99.90;;;;;;5055538;28;20240;-66
2021/03/09 11:56:09;;;;;;;28.10;24.43;;;5.50;99.90;;;;;;5054892;28;20200;-66
2021/03/09 11:58:35;;;;;;;32.97;27.60;;;5.50;99.90;;;;;;5055421;28;20185;-66
2021/03/09 12:01:00;;;;;;;32.83;25.70;;;5.60;99.90;;;;;;5055461;28;20164;-66
2021/03/09 12:03:26;;;;;;;31.00;27.50;;;5.60;99.90;;;;;;5055581;28;20157;-66
2021/03/09 12:05:51;;;;;;;32.03;27.10;;;5.60;99.90;;;;;;5055331;28;20318;-66
2021/03/09 12:08:17;;;;;;;34.87;29.20;;;5.60;99.90;;;;;;5055329;28;20157;-66
2021/03/09 12:10:43;;;;;;;31.90;27.50;;;5.60;99.90;;;;;;5055466;28;20637;-66
2021/03/09 12:13:09;;;;;;;33.07;28.03;;;5.60;99.90;;;;;;5054754;28;20414;-66
2021/03/09 12:15:34;;;;;;;38.17;29.03;;;5.50;99.90;;;;;;5055125;28;20207;-66
2021/03/09 12:18:00;;;;;;;36.77;31.03;;;5.50;99.90;;;;;;5055415;28;20330;-65
2021/03/09 12:20:26;;;;;;;41.67;32.67;;;5.50;99.90;;;;;;5055159;28;20167;-66
2021/03/09 12:22:51;;;;;;;37.70;32.57;;;5.50;99.90;;;;;;5055411;28;20200;-66
2021/03/09 12:25:17;;;;;;;37.50;31.80;;;5.60;99.90;;;;;;5055250;28;20524;-66
2021/03/09 12:27:43;;;;;;;42.20;34.03;;;5.60;99.90;;;;;;5054916;28;20161;-66
2021/03/09 12:30:10;;;;;;;43.50;33.80;;;5.60;99.90;;;;;;5054317;28;20176;-66
2021/03/09 12:32:36;;;;;;;42.13;33.37;;;5.60;99.90;;;;;;5053970;28;20243;-66
2021/03/09 12:35:04;;;;;;;47.40;36.10;;;5.60;99.90;;;;;;5054632;28;20483;-66
2021/03/09 12:37:29;;;;;;;43.50;36.13;;;5.60;99.90;;;;;;5054235;28;20833;-66
2021/03/09 12:39:55;;;;;;;47.67;37.17;;;5.50;99.90;;;;;;5054745;28;20438;-66
2021/03/09 12:42:20;;;;;;;49.60;37.40;;;5.60;99.90;;;;;;5054726;28;20527;-66
2021/03/09 12:44:46;;;;;;;52.40;38.20;;;5.60;99.90;;;;;;5054925;28;20183;-66
2021/03/09 12:47:12;;;;;;;53.80;39.00;;;5.60;99.90;;;;;;5053620;28;20200;-66
2021/03/09 12:49:37;;;;;;;51.10;39.80;;;5.60;99.90;;;;;;5054642;28;20161;-66
2021/03/09 12:52:04;;;;;;;53.53;41.57;;;5.50;99.90;;;;;;5053559;28;20153;-66
2021/03/09 12:54:30;;;;;;;49.00;37.00;;;5.50;99.90;;;;;;5069989;28;20640;-66
2021/03/09 12:56:55;;;;;;;48.63;39.77;;;5.50;99.90;;;;;;5054295;28;20435;-66
2021/03/09 12:59:21;;;;;;;50.00;38.30;;;5.60;99.90;;;;;;5053257;28;20175;-66
2021/03/09 13:01:46;;;;;;;52.03;39.80;;;5.60;99.90;;;;;;5054329;28;20643;-66
2021/03/09 13:04:12;;;;;;;48.20;37.53;;;5.60;99.90;;;;;;5053552;28;20226;-66
2021/03/09 13:06:38;;;;;;;50.87;40.53;;;5.70;99.90;;;;;;5053215;28;20565;-66
2021/03/09 13:09:06;;;;;;;55.80;41.60;;;5.70;99.90;;;;;;5054265;28;20441;-66
2021/03/09 13:11:32;;;;;;;55.90;40.80;;;5.70;99.90;;;;;;5054348;28;20161;-67
2021/03/09 13:13:58;;;;;;;53.50;40.17;;;5.60;99.90;;;;;;5053032;28;20480;-66
2021/03/09 13:16:24;;;;;;;52.30;41.50;;;5.60;99.90;;;;;;5054077;28;20453;-65
2021/03/09 13:18:50;;;;;;;55.43;41.40;;;5.70;99.90;;;;;;5054011;28;20391;-65
2021/03/09 13:21:16;;;;;;;56.53;42.87;;;5.70;99.90;;;;;;5053485;28;20415;-65
2021/03/09 13:23:43;;;;;;;54.77;42.60;;;5.80;99.90;;;;;;5052912;28;20426;-66
2021/03/09 13:26:09;;;;;;;60.17;44.43;;;5.80;99.90;;;;;;5053992;28;20509;-66
2021/03/09 13:28:35;;;;;;;53.40;41.33;;;5.80;99.90;;;;;;5053852;28;20405;-66
2021/03/09 13:31:00;;;;;;;54.63;41.43;;;5.90;99.90;;;;;;5054074;28;20480;-66
2021/03/09 13:33:26;;;;;;;63.13;45.40;;;5.90;99.90;;;;;;5053800;28;20395;-66
2021/03/09 13:35:51;;;;;;;55.90;43.97;;;6.00;99.90;;;;;;5053683;28;20676;-66
2021/03/09 13:38:17;;;;;;;53.60;40.43;;;6.00;99.90;;;;;;5053129;28;20200;-66
2021/03/09 13:40:43;;;;;;;53.17;41.70;;;6.00;99.90;;;;;;5053581;28;20625;-66